createdAt,value
2022-09-07T00:00:26.887Z,0.4
2022-09-07T00:01:35.548Z,0.7
2022-09-07T00:02:45.227Z,0.5
2022-09-07T00:03:52.953Z,0.5
2022-09-07T00:05:01.593Z,0.5
2022-09-07T00:06:10.245Z,0.5
2022-09-07T00:07:17.932Z,0.4
2022-09-07T00:08:27.721Z,0.6
2022-09-07T00:09:36.293Z,0.3
2022-09-07T00:10:44.968Z,0.5
2022-09-07T00:11:54.628Z,0.3
2022-09-07T00:13:02.284Z,0.3
2022-09-07T00:14:11.997Z,0.5
2022-09-07T00:15:21.662Z,0.4
2022-09-07T00:16:30.389Z,0.5
2022-09-07T00:17:39.058Z,0.5
2022-09-07T00:18:48.710Z,0.4
2022-09-07T00:19:57.392Z,0.5
2022-09-07T00:21:07.205Z,0.4
2022-09-07T00:22:16.951Z,0.8
2022-09-07T00:23:26.630Z,0.4
2022-09-07T00:24:35.335Z,0.4
2022-09-07T00:25:44.991Z,0.7
2022-09-07T00:26:54.715Z,0.4
2022-09-07T00:28:03.369Z,0.5
2022-09-07T00:29:13.088Z,0.7
2022-09-07T00:30:22.743Z,0.4
2022-09-07T00:31:30.435Z,0.4
2022-09-07T00:32:40.085Z,0.6
2022-09-07T00:33:49.760Z,0.4
2022-09-07T00:34:58.418Z,0.6
2022-09-07T00:36:08.085Z,0.5
2022-09-07T00:37:15.727Z,0.3
2022-09-07T00:38:24.529Z,0.5
2022-09-07T00:39:34.240Z,0.6
2022-09-07T00:40:41.806Z,0.6
2022-09-07T00:41:51.470Z,0.6
2022-09-07T00:43:00.131Z,0.4
2022-09-07T00:44:08.803Z,0.9
2022-09-07T00:45:18.462Z,0.5
2022-09-07T00:46:27.212Z,0.7
2022-09-07T00:47:35.779Z,0.6
2022-09-07T00:48:45.448Z,0.5
2022-09-07T00:49:53.115Z,0.6
2022-09-07T00:51:02.781Z,0.6
2022-09-07T00:52:11.432Z,0.8
2022-09-07T00:53:19.183Z,0.8
2022-09-07T00:54:28.832Z,0.5
2022-09-07T00:55:36.519Z,0.7
2022-09-07T00:56:45.185Z,0.7
2022-09-07T00:57:54.845Z,0.5
2022-09-07T00:59:04.505Z,0.7
2022-09-07T01:00:14.166Z,0.5
2022-09-07T01:01:22.924Z,0.5
2022-09-07T01:02:30.569Z,0.6
2022-09-07T01:03:40.147Z,0.5
2022-09-07T01:04:48.808Z,0.5
2022-09-07T01:05:57.471Z,0.6
2022-09-07T01:07:07.143Z,0.6
2022-09-07T01:08:15.790Z,0.5
2022-09-07T01:09:25.455Z,0.5
2022-09-07T01:10:34.090Z,0.4
2022-09-07T01:11:41.754Z,0.5
2022-09-07T01:12:51.430Z,0.5
2022-09-07T01:13:59.070Z,0.6
2022-09-07T01:15:07.724Z,0.6
2022-09-07T01:16:17.467Z,0.5
2022-09-07T01:17:24.009Z,0.8
2022-09-07T01:18:33.690Z,0.6
2022-09-07T01:19:42.321Z,0.4
2022-09-07T01:20:49.981Z,0.5
2022-09-07T01:21:59.695Z,0.7
2022-09-07T01:23:08.357Z,0.5
2022-09-07T01:24:17.148Z,0.5
2022-09-07T01:25:26.799Z,0.7
2022-09-07T01:26:35.448Z,0.7
2022-09-07T01:27:45.104Z,0.5
2022-09-07T01:28:53.748Z,0.6
2022-09-07T01:30:01.417Z,0.3
2022-09-07T01:31:11.139Z,0.8
2022-09-07T01:32:18.706Z,0.6
2022-09-07T01:33:27.350Z,0.7
2022-09-07T01:34:37.025Z,0.3
2022-09-07T01:35:44.699Z,0.5
2022-09-07T01:36:54.350Z,0.9
2022-09-07T01:38:04.000Z,0.9
2022-09-07T01:39:11.630Z,0.7
2022-09-07T01:40:21.294Z,0.7
2022-09-07T01:41:30.099Z,0.5
2022-09-07T01:42:39.746Z,0.6
2022-09-07T01:43:49.401Z,0.5
2022-09-07T01:44:57.038Z,0.6
2022-09-07T01:46:06.736Z,0.6
2022-09-07T01:47:14.345Z,0.5
2022-09-07T01:48:24.036Z,0.5
2022-09-07T01:49:33.638Z,0.7
2022-09-07T01:50:41.278Z,0.7
2022-09-07T01:51:50.939Z,0.5
2022-09-07T01:52:58.586Z,0.7
2022-09-07T01:54:08.245Z,1
2022-09-07T01:55:17.898Z,0.7
2022-09-07T01:56:25.545Z,0.8
2022-09-07T01:57:35.192Z,0.8
2022-09-07T01:58:43.880Z,0.8
2022-09-07T01:59:51.517Z,0.7
2022-09-07T02:01:01.176Z,0.6
2022-09-07T02:02:08.873Z,0.6
2022-09-07T02:03:17.460Z,0.6
2022-09-07T02:04:27.136Z,0.7
2022-09-07T02:05:36.785Z,0.8
2022-09-07T02:06:46.438Z,0.6
2022-09-07T02:07:55.080Z,0.6
2022-09-07T02:09:02.713Z,0.8
2022-09-07T02:10:12.408Z,0.8
2022-09-07T02:11:20.040Z,0.7
2022-09-07T02:12:28.679Z,0.6
2022-09-07T02:13:38.630Z,0.6
2022-09-07T02:14:50.629Z,0.8
2022-09-07T02:15:57.966Z,0.7
2022-09-07T02:17:06.560Z,0.8
2022-09-07T02:18:15.212Z,0.5
2022-09-07T02:19:24.859Z,0.7
2022-09-07T02:20:33.510Z,0.5
2022-09-07T02:21:43.172Z,0.8
2022-09-07T02:22:52.832Z,0.6
2022-09-07T02:24:00.472Z,0.5
2022-09-07T02:25:10.123Z,0.7
2022-09-07T02:26:19.763Z,0.9
2022-09-07T02:27:28.416Z,0.5
2022-09-07T02:28:38.086Z,0.7
2022-09-07T02:29:45.726Z,0.5
2022-09-07T02:30:55.513Z,0.4
2022-09-07T02:32:05.078Z,0.6
2022-09-07T02:33:13.751Z,0.7
2022-09-07T02:34:23.412Z,0.5
2022-09-07T02:35:33.083Z,0.4
2022-09-07T02:36:40.719Z,0.6
2022-09-07T02:37:50.377Z,0.5
2022-09-07T02:38:59.035Z,0.5
2022-09-07T02:40:07.701Z,0.4
2022-09-07T02:41:17.364Z,0.6
2022-09-07T02:42:26.006Z,0.4
2022-09-07T02:43:35.668Z,0.5
2022-09-07T02:44:44.430Z,0.4
2022-09-07T02:45:52.125Z,0.6
2022-09-07T02:47:01.720Z,0.5
2022-09-07T02:48:09.375Z,0.5
2022-09-07T02:49:17.033Z,0.6
2022-09-07T02:50:26.710Z,0.5
2022-09-07T02:51:34.345Z,0.5
2022-09-07T02:52:43.991Z,0.6
2022-09-07T02:53:52.627Z,0.6
2022-09-07T02:55:00.272Z,0.6
2022-09-07T02:56:08.935Z,0.8
2022-09-07T02:57:17.570Z,0.6
2022-09-07T02:58:27.287Z,0.5
2022-09-07T02:59:37.856Z,0.6
2022-09-07T03:00:45.512Z,0.4
2022-09-07T03:01:55.221Z,0.4
2022-09-07T03:03:03.815Z,0.6
2022-09-07T03:04:11.488Z,0.7
2022-09-07T03:05:21.111Z,0.6
2022-09-07T03:06:28.757Z,0.8
2022-09-07T03:07:42.246Z,1
2022-09-07T03:08:48.053Z,0.7
2022-09-07T03:09:57.704Z,0.8
2022-09-07T03:11:07.355Z,0.4
2022-09-07T03:12:16.000Z,0.9
2022-09-07T03:13:23.676Z,0.5
2022-09-07T03:14:33.332Z,0.6
2022-09-07T03:15:42.019Z,0.5
2022-09-07T03:16:50.615Z,0.7
2022-09-07T03:18:00.262Z,0.4
2022-09-07T03:19:07.922Z,0.6
2022-09-07T03:20:17.580Z,0.5
2022-09-07T03:21:26.227Z,0.5
2022-09-07T03:22:33.867Z,0.5
2022-09-07T03:23:43.509Z,0.6
2022-09-07T03:24:51.181Z,0.5
2022-09-07T03:25:59.828Z,0.6
2022-09-07T03:27:09.492Z,0.6
2022-09-07T03:28:17.135Z,0.6
2022-09-07T03:29:26.783Z,0.6
2022-09-07T03:30:35.502Z,0.6
2022-09-07T03:31:44.102Z,0.6
2022-09-07T03:32:53.752Z,0.5
2022-09-07T03:34:03.405Z,0.7
2022-09-07T03:35:14.279Z,0.5
2022-09-07T03:36:22.723Z,0.5
2022-09-07T03:37:31.379Z,0.4
2022-09-07T03:38:41.056Z,0.4
2022-09-07T03:39:49.739Z,0.5
2022-09-07T03:40:57.352Z,0.4
2022-09-07T03:42:07.030Z,0.5
2022-09-07T03:43:14.671Z,0.6
2022-09-07T03:44:24.317Z,0.6
2022-09-07T03:45:31.962Z,0.5
2022-09-07T03:46:41.617Z,0.6
2022-09-07T03:47:51.408Z,0.5
2022-09-07T03:48:59.123Z,0.6
2022-09-07T03:50:08.771Z,0.8
2022-09-07T03:51:17.407Z,1
2022-09-07T03:52:25.042Z,0.6
2022-09-07T03:53:34.712Z,0.6
2022-09-07T03:54:44.348Z,0.6
2022-09-07T03:55:53.993Z,0.6
2022-09-07T03:57:03.634Z,0.7
2022-09-07T03:58:11.274Z,0.8
2022-09-07T03:59:20.967Z,0.7
2022-09-07T04:00:29.617Z,0.7
2022-09-07T04:01:37.326Z,0.7
2022-09-07T04:02:46.972Z,0.4
2022-09-07T04:03:56.866Z,0.5
2022-09-07T04:05:04.225Z,0.6
2022-09-07T04:06:13.875Z,0.5
2022-09-07T04:07:22.524Z,0.7
2022-09-07T04:08:32.390Z,0.6
2022-09-07T04:09:41.828Z,0.7
2022-09-07T04:10:49.493Z,0.5
2022-09-07T04:11:59.159Z,1.1
2022-09-07T04:13:07.812Z,0.4
2022-09-07T04:14:17.469Z,0.5
2022-09-07T04:15:27.108Z,0.9
2022-09-07T04:16:34.927Z,0.5
2022-09-07T04:17:44.584Z,0.5
2022-09-07T04:18:53.231Z,0.7
2022-09-07T04:20:01.918Z,0.5
2022-09-07T04:21:11.580Z,0.7
2022-09-07T04:22:20.279Z,0.6
2022-09-07T04:23:28.933Z,0.7
2022-09-07T04:24:38.582Z,0.6
2022-09-07T04:25:46.261Z,0.6
2022-09-07T04:26:55.914Z,0.5
2022-09-07T04:28:04.596Z,0.4
2022-09-07T04:29:12.256Z,0.7
2022-09-07T04:30:21.974Z,0.5
2022-09-07T04:31:30.652Z,0.6
2022-09-07T04:32:39.342Z,0.7
2022-09-07T04:33:49.195Z,0.6
2022-09-07T04:34:56.857Z,0.6
2022-09-07T04:36:06.614Z,0.5
2022-09-07T04:37:15.269Z,0.4
2022-09-07T04:38:22.932Z,0.6
2022-09-07T04:39:32.660Z,0.2
2022-09-07T04:40:40.271Z,0.3
2022-09-07T04:41:48.933Z,0.7
2022-09-07T04:42:58.610Z,0.3
2022-09-07T04:44:06.260Z,0.6
2022-09-07T04:45:15.958Z,0.4
2022-09-07T04:46:24.662Z,0.4
2022-09-07T04:47:33.268Z,0.5
2022-09-07T04:48:42.931Z,0.4
2022-09-07T04:49:51.592Z,0.5
2022-09-07T04:51:05.286Z,0.4
2022-09-07T04:52:11.048Z,0.3
2022-09-07T04:53:18.742Z,0.5
2022-09-07T04:54:28.405Z,0.5
2022-09-07T04:55:38.062Z,0.5
2022-09-07T04:56:45.760Z,0.3
2022-09-07T04:57:55.418Z,0.7
2022-09-07T04:59:05.091Z,0.3
2022-09-07T05:00:13.770Z,0.4
2022-09-07T05:01:23.473Z,0.5
2022-09-07T05:02:32.163Z,0.4
2022-09-07T05:03:41.747Z,0.3
2022-09-07T05:04:50.389Z,0.4
2022-09-07T05:05:58.043Z,0.3
2022-09-07T05:07:07.702Z,0.5
2022-09-07T05:08:16.512Z,0.5
2022-09-07T05:09:25.169Z,0.6
2022-09-07T05:10:34.810Z,0.5
2022-09-07T05:11:43.472Z,0.5
2022-09-07T05:12:53.121Z,0.5
2022-09-07T05:14:01.783Z,0.4
2022-09-07T05:15:09.431Z,0.4
2022-09-07T05:16:18.134Z,0.4
2022-09-07T05:17:25.720Z,0.5
2022-09-07T05:18:34.380Z,0.4
2022-09-07T05:19:44.070Z,0.6
2022-09-07T05:20:52.717Z,0.4
2022-09-07T05:22:02.398Z,0.7
2022-09-07T05:23:11.067Z,0.9
2022-09-07T05:24:18.716Z,0.8
2022-09-07T05:25:28.510Z,0.7
2022-09-07T05:26:36.148Z,0.8
2022-09-07T05:27:44.796Z,0.7
2022-09-07T05:30:04.557Z,0.5
2022-09-07T05:32:23.377Z,0.5
2022-09-07T05:34:43.657Z,0.5
2022-09-07T05:35:53.323Z,0.5
2022-09-07T05:37:02.002Z,0.4
2022-09-07T05:38:10.656Z,0.6
2022-09-07T05:39:20.310Z,0.5
2022-09-07T05:40:29.961Z,0.5
2022-09-07T05:41:38.599Z,0.4
2022-09-07T05:42:48.332Z,0.4
2022-09-07T05:45:08.621Z,0.6
2022-09-07T05:46:18.319Z,0.3
2022-09-07T05:47:25.935Z,0.5
2022-09-07T05:48:34.640Z,0.4
2022-09-07T05:49:44.292Z,0.4
2022-09-07T05:50:51.943Z,0.7
2022-09-07T05:52:01.607Z,0.6
2022-09-07T05:53:10.264Z,0.4
2022-09-07T05:54:17.959Z,0.5
2022-09-07T05:55:30.175Z,0.5
2022-09-07T05:56:36.431Z,0.4
2022-09-07T05:57:44.899Z,0.3
2022-09-07T05:58:54.560Z,0.5
2022-09-07T06:00:03.240Z,0.4
2022-09-07T06:01:12.891Z,0.4
2022-09-07T06:02:21.666Z,0.3
2022-09-07T06:03:29.288Z,0.5
2022-09-07T06:04:38.884Z,0.3
2022-09-07T06:05:46.550Z,0.7
2022-09-07T06:07:21.439Z,0.4
2022-09-07T06:08:06.817Z,0.4
2022-09-07T06:09:14.459Z,0.4
2022-09-07T06:11:33.759Z,0.4
2022-09-07T06:12:43.419Z,0.4
2022-09-07T06:13:53.091Z,0.5
2022-09-07T06:15:01.737Z,0.6
2022-09-07T06:16:10.413Z,0.4
2022-09-07T06:17:19.045Z,0.4
2022-09-07T06:18:27.697Z,0.5
2022-09-07T06:19:36.350Z,0.3
2022-09-07T06:20:44.982Z,0.5
2022-09-07T06:21:53.655Z,0.5
2022-09-07T06:23:03.345Z,0.6
2022-09-07T06:24:12.001Z,0.9
2022-09-07T06:25:20.671Z,0.5
2022-09-07T06:26:30.313Z,0.5
2022-09-07T06:27:38.963Z,0.5
2022-09-07T06:28:49.788Z,0.6
2022-09-07T06:29:57.310Z,0.4
2022-09-07T06:31:04.946Z,0.5
2022-09-07T06:33:25.243Z,0.4
2022-09-07T06:34:34.885Z,0.4
2022-09-07T06:35:44.537Z,0.3
2022-09-07T06:36:52.181Z,0.4
2022-09-07T06:38:01.836Z,0.3
2022-09-07T06:39:10.480Z,0.4
2022-09-07T06:40:19.144Z,0.4
2022-09-07T06:42:37.404Z,0.5
2022-09-07T06:43:47.049Z,0.2
2022-09-07T06:44:56.709Z,0.4
2022-09-07T06:47:17.003Z,0.5
2022-09-07T06:48:25.650Z,0.6
2022-09-07T06:49:33.302Z,0.4
2022-09-07T06:50:42.960Z,0.6
2022-09-07T06:51:52.660Z,0.4
2022-09-07T06:55:22.650Z,0.5
2022-09-07T06:56:32.320Z,0.4
2022-09-07T06:57:42.026Z,0.3
2022-09-07T06:58:49.686Z,0.3
2022-09-07T06:59:58.346Z,0.9
2022-09-07T07:01:08.076Z,0.3
2022-09-07T07:02:17.670Z,0.5
2022-09-07T07:03:27.417Z,0.2
2022-09-07T07:04:39.727Z,0.4
2022-09-07T07:05:44.748Z,0.4
2022-09-07T07:06:54.403Z,0.3
2022-09-07T07:08:03.069Z,0.4
2022-09-07T07:09:11.752Z,0.4
2022-09-07T07:10:24.435Z,0.2
2022-09-07T07:11:29.047Z,0.5
2022-09-07T07:13:37.152Z,0.2
2022-09-07T07:14:45.937Z,0.3
2022-09-07T07:15:55.618Z,0.5
2022-09-07T07:17:04.258Z,0.2
2022-09-07T07:18:21.072Z,0.2
2022-09-07T07:19:24.543Z,0.1
2022-09-07T07:20:33.236Z,0.2
2022-09-07T07:22:07.646Z,0.3
2022-09-07T07:22:52.533Z,0.3
2022-09-07T07:24:05.052Z,0.2
2022-09-07T07:25:11.853Z,0.1
2022-09-07T07:26:18.531Z,0.2
2022-09-07T07:27:28.200Z,0.1
2022-09-07T07:29:46.478Z,0.3
2022-09-07T07:30:55.154Z,0.1
2022-09-07T07:32:03.938Z,0.2
2022-09-07T07:33:13.626Z,0.3
2022-09-07T07:34:23.306Z,0.1
2022-09-07T07:35:31.900Z,0.2
2022-09-07T07:36:41.564Z,0.2
2022-09-07T07:37:50.591Z,0.1
2022-09-07T07:39:00.167Z,0.2
2022-09-07T07:42:31.783Z,0.1
2022-09-07T07:43:39.463Z,0.2
2022-09-07T07:44:48.653Z,0.1
2022-09-07T07:45:58.468Z,0.2
2022-09-07T07:47:07.419Z,0.1
2022-09-07T07:48:17.094Z,0.4
2022-09-07T07:49:26.822Z,0.1
2022-09-07T07:50:36.428Z,0.1
2022-09-07T07:54:06.327Z,0.2
2022-09-07T07:55:45.876Z,0.2
2022-09-07T07:56:25.627Z,0.3
2022-09-07T07:57:35.284Z,0.3
2022-09-07T07:58:43.927Z,0.2
2022-09-07T07:59:58.685Z,0.4
2022-09-07T08:01:08.571Z,0.4
2022-09-07T08:02:18.256Z,0.2
2022-09-07T08:03:26.933Z,0.3
2022-09-07T08:04:36.640Z,0.2
2022-09-07T08:05:45.213Z,0.1
2022-09-07T08:06:52.911Z,0.3
2022-09-07T08:08:02.562Z,0.1
2022-09-07T08:09:11.214Z,0.1
2022-09-07T08:10:20.882Z,0.6
2022-09-07T08:11:30.560Z,0.3
2022-09-07T08:12:38.246Z,0.2
2022-09-07T08:13:47.926Z,0.2
2022-09-07T08:14:56.599Z,0.2
2022-09-07T08:16:04.321Z,0.2
2022-09-07T08:17:13.959Z,0.2
2022-09-07T08:18:21.649Z,0.3
2022-09-07T08:19:30.323Z,0.2
2022-09-07T08:20:40.016Z,0.1
2022-09-07T08:21:47.679Z,0.2
2022-09-07T08:22:57.367Z,0.3
2022-09-07T08:24:06.055Z,0.2
2022-09-07T08:25:13.728Z,0.1
2022-09-07T08:26:23.443Z,0.2
2022-09-07T08:27:31.090Z,0.1
2022-09-07T08:28:40.754Z,0.1
2022-09-07T08:29:50.436Z,0.1
2022-09-07T08:30:58.118Z,0.4
2022-09-07T08:32:07.007Z,0.2
2022-09-07T08:33:15.465Z,0.2
2022-09-07T08:34:24.156Z,0.1
2022-09-07T08:35:33.856Z,0.3
2022-09-07T08:36:43.564Z,0.3
2022-09-07T08:37:53.257Z,0.1
2022-09-07T08:39:02.920Z,0.2
2022-09-07T08:40:11.642Z,0.2
2022-09-07T08:41:21.311Z,0.2
2022-09-07T08:42:30.036Z,0.3
2022-09-07T08:43:38.713Z,0.1
2022-09-07T08:44:48.376Z,0.3
2022-09-07T08:45:56.205Z,0.2
2022-09-07T08:47:05.005Z,0.1
2022-09-07T08:48:14.590Z,0.2
2022-09-07T08:49:22.255Z,0.2
2022-09-07T08:50:31.933Z,0.1
2022-09-07T08:51:41.650Z,0.1
2022-09-07T08:52:51.420Z,0.2
2022-09-07T08:54:01.059Z,0.1
2022-09-07T08:55:08.742Z,0.1
2022-09-07T08:56:17.411Z,0.1
2022-09-07T08:57:27.067Z,0.3
2022-09-07T08:58:51.491Z,0.2
2022-09-07T08:59:47.387Z,0.3
2022-09-07T09:03:32.926Z,0.4
2022-09-07T09:04:28.569Z,0.1
2022-09-07T09:05:36.809Z,0.1
2022-09-07T09:06:45.459Z,0.2
2022-09-07T09:07:55.075Z,0.1
2022-09-07T09:09:04.704Z,0.2
2022-09-07T09:10:14.389Z,0.1
2022-09-07T09:11:22.068Z,0.2
2022-09-07T09:12:35.565Z,0.4
2022-09-07T09:13:40.428Z,0.3
2022-09-07T09:14:50.101Z,0.1
2022-09-07T09:15:59.862Z,0.1
2022-09-07T09:17:08.501Z,0.1
2022-09-07T09:18:18.180Z,0.1
2022-09-07T09:19:26.891Z,0
2022-09-07T09:20:36.598Z,0.2
2022-09-07T09:21:46.386Z,0.1
2022-09-07T09:22:54.055Z,0.2
2022-09-07T09:24:03.758Z,0.2
2022-09-07T09:25:13.422Z,0.2
2022-09-07T09:26:23.106Z,0.1
2022-09-07T09:27:32.789Z,0.2
2022-09-07T09:28:41.478Z,0.1
2022-09-07T09:29:49.149Z,0.1
2022-09-07T09:30:58.866Z,0.1
2022-09-07T09:32:06.499Z,0
2022-09-07T09:33:16.231Z,0.1
2022-09-07T09:34:28.650Z,0
2022-09-07T09:35:34.565Z,0.1
2022-09-07T09:36:44.239Z,0.1
2022-09-07T09:37:50.916Z,0.1
2022-09-07T09:39:00.605Z,0.2
2022-09-07T09:40:10.377Z,0.1
2022-09-07T09:41:18.951Z,0.1
2022-09-07T09:42:28.651Z,0
2022-09-07T09:43:38.333Z,0.2
2022-09-07T09:44:47.025Z,0.1
2022-09-07T09:46:12.615Z,0.2
2022-09-07T09:48:18.124Z,0.2
2022-09-07T09:49:26.824Z,0.2
2022-09-07T09:52:56.781Z,0
2022-09-07T09:54:05.452Z,0.2
2022-09-07T09:55:33.625Z,0.1
2022-09-07T09:56:23.803Z,0
2022-09-07T09:57:33.476Z,0.1
2022-09-07T09:59:59.329Z,0
2022-09-07T10:04:36.436Z,0.1
2022-09-07T10:05:46.124Z,0
2022-09-07T10:06:55.792Z,0
2022-09-07T10:08:04.574Z,0.1
2022-09-07T10:09:13.285Z,0.1
2022-09-07T10:10:22.993Z,0
2022-09-07T10:12:42.319Z,0.3
2022-09-07T10:13:51.994Z,0.1
2022-09-07T10:15:00.696Z,0
2022-09-07T10:16:10.461Z,0.1
2022-09-07T10:17:20.124Z,0.1
2022-09-07T10:18:29.860Z,0.1
2022-09-07T10:19:39.557Z,0.1
2022-09-07T10:20:48.235Z,0.1
2022-09-07T10:21:56.921Z,0.1
2022-09-07T10:23:06.619Z,0.1
2022-09-07T10:24:14.277Z,0
2022-09-07T10:25:24.214Z,0
2022-09-07T10:26:33.914Z,0.1
2022-09-07T10:27:42.543Z,0.1
2022-09-07T10:29:08.090Z,0.1
2022-09-07T10:30:00.891Z,0.1
2022-09-07T10:31:14.639Z,0.1
2022-09-07T10:32:20.237Z,0
2022-09-07T10:33:27.924Z,0.1
2022-09-07T10:34:37.602Z,0.1
2022-09-07T10:35:46.283Z,0.1
2022-09-07T10:36:55.977Z,0
2022-09-07T10:38:05.669Z,0.2
2022-09-07T10:39:14.350Z,0.1
2022-09-07T10:40:23.141Z,0.1
2022-09-07T10:41:32.831Z,0.1
2022-09-07T10:43:20.538Z,0
2022-09-07T10:43:53.186Z,0.1
2022-09-07T10:45:01.927Z,0.4
2022-09-07T10:46:10.657Z,0.1
2022-09-07T10:47:20.317Z,0.1
2022-09-07T10:48:28.940Z,0
2022-09-07T10:49:37.783Z,0.1
2022-09-07T10:50:47.326Z,0.1
2022-09-07T10:51:57.019Z,0.2
2022-09-07T10:53:23.802Z,0
2022-09-07T10:54:33.002Z,0.1
2022-09-07T10:55:25.992Z,0.1
2022-09-07T10:56:35.653Z,0.1
2022-09-07T10:57:48.336Z,0.1
2022-09-07T10:59:03.334Z,0.1
2022-09-07T11:00:09.248Z,0.1
2022-09-07T11:01:15.437Z,0.1
2022-09-07T11:02:24.040Z,0.1
2022-09-07T11:03:32.805Z,0.1
2022-09-07T11:04:40.354Z,0.1
2022-09-07T11:05:50.062Z,0.1
2022-09-07T11:06:57.782Z,0.2
2022-09-07T11:08:06.516Z,0.1
2022-09-07T11:09:17.463Z,0.1
2022-09-07T11:10:24.811Z,0.1
2022-09-07T11:12:04.698Z,0.4
2022-09-07T11:12:44.263Z,0.1
2022-09-07T11:14:11.782Z,0
2022-09-07T11:15:04.632Z,0.1
2022-09-07T11:16:50.070Z,0.2
2022-09-07T11:17:22.966Z,0.2
2022-09-07T11:18:32.769Z,0.1
2022-09-07T11:19:42.276Z,0.2
2022-09-07T11:20:51.958Z,0.2
2022-09-07T11:22:01.630Z,0.1
2022-09-07T11:23:12.324Z,0.3
2022-09-07T11:24:21.994Z,0.3
2022-09-07T11:25:31.756Z,0.2
2022-09-07T11:26:41.289Z,0.3
2022-09-07T11:27:50.982Z,0.1
2022-09-07T11:30:11.542Z,0.2
2022-09-07T11:31:21.274Z,0
2022-09-07T11:32:29.884Z,0.1
2022-09-07T11:33:39.769Z,0.1
2022-09-07T11:34:48.256Z,0.2
2022-09-07T11:35:57.916Z,0.1
2022-09-07T11:37:05.599Z,0.2
2022-09-07T11:38:15.260Z,0.2
2022-09-07T11:39:24.929Z,0.1
2022-09-07T11:40:33.616Z,0
2022-09-07T11:41:43.295Z,0.1
2022-09-07T11:42:51.961Z,0.1
2022-09-07T11:44:00.666Z,0.1
2022-09-07T11:45:10.330Z,0.1
2022-09-07T11:46:20.117Z,0.1
2022-09-07T11:47:29.785Z,0.1
2022-09-07T11:48:39.449Z,0.2
2022-09-07T11:49:52.038Z,0.1
2022-09-07T11:50:59.762Z,0.1
2022-09-07T11:52:09.437Z,0.2
2022-09-07T11:53:18.118Z,0.2
2022-09-07T11:54:27.783Z,0.1
2022-09-07T11:55:35.429Z,0.1
2022-09-07T11:56:45.527Z,0.2
2022-09-07T11:57:55.688Z,0.1
2022-09-07T11:59:04.422Z,0.1
2022-09-07T12:00:14.091Z,0.1
2022-09-07T12:01:23.785Z,0.2
2022-09-07T12:02:55.685Z,0.1
2022-09-07T12:03:44.250Z,0.1
2022-09-07T12:04:56.115Z,0.1
2022-09-07T12:06:02.431Z,0
2022-09-07T12:07:12.127Z,0.2
2022-09-07T12:08:20.827Z,0.2
2022-09-07T12:09:30.514Z,0.3
2022-09-07T12:10:39.219Z,0.1
2022-09-07T12:11:46.880Z,0.2
2022-09-07T12:12:56.593Z,0.4
2022-09-07T12:14:04.246Z,0.2
2022-09-07T12:15:13.073Z,0.1
2022-09-07T12:16:22.752Z,0.3
2022-09-07T12:17:32.429Z,0.2
2022-09-07T12:18:42.081Z,0.1
2022-09-07T12:19:50.755Z,0.3
2022-09-07T12:20:59.460Z,0.3
2022-09-07T12:22:09.168Z,0.2
2022-09-07T12:23:17.921Z,0.2
2022-09-07T12:24:26.573Z,0.4
2022-09-07T12:25:36.258Z,0.2
2022-09-07T12:26:43.966Z,0.1
2022-09-07T12:27:53.635Z,0.1
2022-09-07T12:29:03.323Z,0.3
2022-09-07T12:30:10.981Z,0.1
2022-09-07T12:31:20.818Z,0.2
2022-09-07T12:33:41.159Z,0.1
2022-09-07T12:34:50.788Z,0.2
2022-09-07T12:36:00.483Z,0.1
2022-09-07T12:37:12.370Z,0
2022-09-07T12:38:18.826Z,0.1
2022-09-07T12:39:26.563Z,0
2022-09-07T12:40:36.209Z,0.3
2022-09-07T12:41:44.587Z,0.1
2022-09-07T12:42:54.468Z,0.2
2022-09-07T12:44:03.226Z,0.3
2022-09-07T12:45:10.927Z,0.2
2022-09-07T12:46:20.656Z,0
2022-09-07T12:47:30.271Z,0.2
2022-09-07T12:48:38.925Z,0.1
2022-09-07T12:49:48.727Z,0.3
2022-09-07T12:50:57.424Z,0.1
2022-09-07T12:52:15.069Z,0.1
2022-09-07T12:53:17.691Z,0.2
2022-09-07T12:54:26.350Z,0.1
2022-09-07T12:56:15.459Z,0.2
2022-09-07T12:56:46.236Z,0.3
2022-09-07T12:57:54.776Z,0.2
2022-09-07T12:59:03.460Z,0.2
2022-09-07T13:00:11.143Z,0.1
2022-09-07T13:01:19.935Z,0.2
2022-09-07T13:02:29.659Z,0.2
2022-09-07T13:03:54.578Z,0.6
2022-09-07T13:04:49.961Z,0.3
2022-09-07T13:05:59.619Z,0.3
2022-09-07T13:07:07.293Z,0
2022-09-07T13:08:16.960Z,0.3
2022-09-07T13:09:25.623Z,0
2022-09-07T13:10:34.303Z,0.1
2022-09-07T13:11:43.979Z,0.1
2022-09-07T13:12:54.161Z,0.3
2022-09-07T13:14:04.938Z,0.1
2022-09-07T13:15:22.587Z,0.3
2022-09-07T13:16:21.665Z,0.1
2022-09-07T13:17:31.295Z,0.1
2022-09-07T13:18:40.098Z,0
2022-09-07T13:19:49.767Z,0
2022-09-07T13:20:59.428Z,0.2
2022-09-07T13:22:09.934Z,0.2
2022-09-07T13:23:18.834Z,0.1
2022-09-07T13:24:46.016Z,0.1
2022-09-07T13:25:37.127Z,0.1
2022-09-07T13:26:50.630Z,0.5
2022-09-07T13:27:55.458Z,0.3
2022-09-07T13:29:05.146Z,0.4
2022-09-07T13:30:14.831Z,0.2
2022-09-07T13:31:24.624Z,0.2
2022-09-07T13:33:43.854Z,0.2
2022-09-07T13:34:53.547Z,0.4
2022-09-07T13:36:02.332Z,0.1
2022-09-07T13:37:12.047Z,0.1
2022-09-07T13:38:21.697Z,0.3
2022-09-07T13:39:29.421Z,0.4
2022-09-07T13:40:38.025Z,0.1
2022-09-07T13:41:47.800Z,0.2
2022-09-07T13:42:55.476Z,0
2022-09-07T13:44:05.163Z,0.1
2022-09-07T13:45:13.823Z,0.2
2022-09-07T13:46:21.536Z,0.1
2022-09-07T13:47:31.216Z,0.1
2022-09-07T13:48:38.898Z,0.3
2022-09-07T13:49:51.369Z,0.3
2022-09-07T13:50:57.255Z,0.1
2022-09-07T13:52:06.960Z,0.1
2022-09-07T13:53:16.847Z,0.1
2022-09-07T13:54:26.493Z,0.1
2022-09-07T13:55:35.177Z,0.1
2022-09-07T13:56:44.889Z,0.1
2022-09-07T13:57:54.573Z,0.2
2022-09-07T13:59:04.301Z,0.1
2022-09-07T14:00:13.969Z,0.1
2022-09-07T14:01:22.735Z,0
2022-09-07T14:02:32.389Z,0
2022-09-07T14:03:40.990Z,0.2
2022-09-07T14:04:49.689Z,0.2
2022-09-07T14:05:59.360Z,0
2022-09-07T14:07:08.201Z,0.2
2022-09-07T14:08:17.881Z,0
2022-09-07T14:09:27.659Z,0
2022-09-07T14:10:36.295Z,0.2
2022-09-07T14:11:45.965Z,0.3
2022-09-07T14:12:54.622Z,0.2
2022-09-07T14:14:03.284Z,0
2022-09-07T14:15:12.961Z,0
2022-09-07T14:16:21.655Z,0
2022-09-07T14:17:30.311Z,0.2
2022-09-07T14:18:39.974Z,0.1
2022-09-07T14:19:48.648Z,0.1
2022-09-07T14:20:58.308Z,0.1
2022-09-07T14:22:07.136Z,0.1
2022-09-07T14:23:16.837Z,0.1
2022-09-07T14:24:26.519Z,0.1
2022-09-07T14:26:15.844Z,0.1
2022-09-07T14:26:45.824Z,0.1
2022-09-07T14:27:55.490Z,0.1
2022-09-07T14:29:03.171Z,0
2022-09-07T14:30:12.851Z,0.1
2022-09-07T14:31:21.634Z,0.1
2022-09-07T14:32:30.189Z,0
2022-09-07T14:33:42.618Z,0
2022-09-07T14:34:48.566Z,0.1
2022-09-07T14:35:57.232Z,0.1
2022-09-07T14:37:06.893Z,0
2022-09-07T14:38:15.868Z,0.2
2022-09-07T14:39:25.324Z,0
2022-09-07T14:40:33.974Z,0
2022-09-07T14:41:43.668Z,0.1
2022-09-07T14:42:53.304Z,0.1
2022-09-07T14:44:00.965Z,0
2022-09-07T14:45:10.645Z,0.2
2022-09-07T14:46:20.383Z,0.1
2022-09-07T14:47:29.413Z,0
2022-09-07T14:48:39.053Z,0.1
2022-09-07T14:49:47.313Z,0.2
2022-09-07T14:51:11.167Z,0.2
2022-09-07T14:52:07.637Z,0.2
2022-09-07T14:54:27.944Z,0.1
2022-09-07T14:55:37.597Z,0.1
2022-09-07T14:56:47.321Z,0
2022-09-07T14:57:56.979Z,0.1
2022-09-07T14:59:05.648Z,0.2
2022-09-07T15:00:13.298Z,0.1
2022-09-07T15:01:38.691Z,0.1
2022-09-07T15:02:31.728Z,0.2
2022-09-07T15:03:40.365Z,0.1
2022-09-07T15:04:50.022Z,0.2
2022-09-07T15:06:01.097Z,0.1
2022-09-07T15:07:08.442Z,0
2022-09-07T15:08:17.131Z,0
2022-09-07T15:09:25.797Z,0.2
2022-09-07T15:10:36.799Z,0
2022-09-07T15:11:45.435Z,0.2
2022-09-07T15:12:55.144Z,0.1
2022-09-07T15:14:04.824Z,0
2022-09-07T15:15:13.482Z,0.1
2022-09-07T15:16:23.191Z,0
2022-09-07T15:17:48.289Z,0
2022-09-07T15:18:42.472Z,0.1
2022-09-07T15:19:52.164Z,0.2
2022-09-07T15:20:59.845Z,0.1
2022-09-07T15:22:08.519Z,0.1
2022-09-07T15:23:18.209Z,0
2022-09-07T15:24:25.861Z,0.3
2022-09-07T15:25:35.688Z,0.1
2022-09-07T15:27:53.991Z,0.2
2022-09-07T15:29:11.663Z,0.1
2022-09-07T15:30:13.282Z,0
2022-09-07T15:32:34.306Z,0
2022-09-07T15:33:42.362Z,0
2022-09-07T15:34:52.026Z,0.1
2022-09-07T15:35:59.675Z,0.2
2022-09-07T15:39:28.704Z,0.1
2022-09-07T15:40:38.382Z,0
2022-09-07T15:41:45.967Z,0.1
2022-09-07T15:43:11.629Z,0
2022-09-07T15:44:06.313Z,0.2
2022-09-07T15:45:15.966Z,0.1
2022-09-07T15:46:25.686Z,0.2
2022-09-07T15:47:46.929Z,0.1
2022-09-07T15:48:44.952Z,0.1
2022-09-07T15:49:54.623Z,0.2
2022-09-07T15:51:04.545Z,0
2022-09-07T15:52:13.015Z,0.2
2022-09-07T15:54:34.984Z,0.2
2022-09-07T15:55:42.041Z,0.1
2022-09-07T15:58:11.341Z,0.2
2022-09-07T15:59:13.151Z,0
2022-09-07T16:00:21.858Z,0.1
2022-09-07T16:03:51.921Z,0.1
2022-09-07T16:05:01.614Z,0.2
2022-09-07T16:06:13.740Z,0.2
2022-09-07T16:07:18.969Z,0.2
2022-09-07T16:08:32.643Z,0.1
2022-09-07T16:09:38.248Z,0.2
2022-09-07T16:10:53.319Z,0.2
2022-09-07T16:12:59.924Z,0.1
2022-09-07T16:13:11.455Z,0.1
2022-09-07T16:14:20.031Z,0.1
2022-09-07T16:15:29.687Z,0.1
2022-09-07T16:17:53.761Z,0.1
2022-09-07T16:19:01.233Z,0.2
2022-09-07T16:20:08.382Z,0.1
2022-09-07T16:21:18.042Z,0.1
2022-09-07T16:23:38.354Z,0.2
2022-09-07T16:24:48.076Z,0.3
2022-09-07T16:25:55.713Z,0.1
2022-09-07T16:27:05.459Z,0.1
2022-09-07T16:28:13.122Z,0.3
2022-09-07T16:29:22.981Z,0.1
2022-09-07T16:30:33.674Z,0.1
2022-09-07T16:32:43.801Z,0.2
2022-09-07T16:32:51.033Z,0.2
2022-09-07T16:34:00.671Z,0.1
2022-09-07T16:35:08.397Z,0.1
2022-09-07T16:36:18.093Z,0.2
2022-09-07T16:37:26.759Z,0.1
2022-09-07T16:38:44.421Z,0.1
2022-09-07T16:39:47.195Z,0.2
2022-09-07T16:40:54.870Z,0.2
2022-09-07T16:42:04.580Z,0.1
2022-09-07T16:43:13.256Z,0